Time;durP1;ratioP1;P1;durP2;ratioP2;P2;SDS_P1;SDS_P2;PMS_P1;PMS_P2;Temp;Humidity;BMP_temperature;BMP_pressure;BME280_temperature;BME280_humidity;BME280_pressure;Samples;Min_cycle;Max_cycle;Signal;HPM_P1;HPM_P2
2022/10/29 16:09:48;;;;;;;13.70;10.57;;;;;;;10.90;100.00;100630.67;1797107;78;21790;-60
2022/10/29 16:12:15;;;;;;;12.40;8.97;;;;;;;10.88;100.00;100633.16;1806312;78;21685;-67
2022/10/29 16:14:42;;;;;;;11.97;9.80;;;;;;;10.88;100.00;100627.45;1802014;78;21826;-60
2022/10/29 16:17:15;;;;;;;15.57;10.50;;;;;;;10.85;100.00;100625.19;1801823;78;21753;-59
2022/10/29 16:19:43;;;;;;;12.43;10.40;;;;;;;10.82;100.00;100626.02;1790630;78;21658;-60
2022/10/29 16:22:27;;;;;;;13.30;10.33;;;;;;;10.79;100.00;100621.96;1790635;78;21701;-60
2022/10/29 16:24:55;;;;;;;15.27;10.90;;;;;;;10.78;100.00;100617.74;1789369;78;21651;-60
2022/10/29 16:27:23;;;;;;;12.77;9.93;;;;;;;10.74;100.00;100612.56;1812184;78;21527;-60
2022/10/29 16:29:50;;;;;;;13.40;10.33;;;;;;;10.72;100.00;100613.25;1800306;78;21663;-60
2022/10/29 16:32:22;;;;;;;13.53;10.40;;;;;;;10.72;100.00;100609.34;1802299;78;21655;-68
2022/10/29 16:34:51;;;;;;;13.20;11.28;;;;;;;10.71;100.00;100616.81;1807245;78;22654;-59
2022/10/29 16:37:19;;;;;;;14.87;11.63;;;;;;;10.67;100.00;100611.63;1802572;78;21374;-59
2022/10/29 16:39:46;;;;;;;13.87;10.53;;;;;;;10.66;100.00;100602.20;1807590;78;21443;-60
2022/10/29 16:42:28;;;;;;;15.17;10.00;;;;;;;10.66;100.00;100606.11;1814703;78;21627;-67
2022/10/29 16:44:55;;;;;;;12.80;9.60;;;;;;;10.66;100.00;100595.68;1795280;78;21677;-60
2022/10/29 16:47:22;;;;;;;14.37;10.90;;;;;;;10.65;100.00;100596.67;1802769;78;20927;-60
2022/10/29 16:49:50;;;;;;;13.17;10.03;;;;;;;10.62;100.00;100593.11;1802001;78;21729;-61
2022/10/29 16:52:17;;;;;;;13.90;10.17;;;;;;;10.62;100.00;100589.20;1810395;78;21647;-67
2022/10/29 16:54:44;;;;;;;13.13;10.43;;;;;;;10.59;100.00;100586.94;1793985;78;21689;-60
2022/10/29 16:57:12;;;;;;;15.20;10.73;;;;;;;10.60;100.00;100587.25;1796291;78;22142;-60
2022/10/29 16:59:39;;;;;;;15.23;12.20;;;;;;;10.58;100.00;100583.52;1803242;78;21640;-63
2022/10/29 17:02:06;;;;;;;17.77;11.63;;;;;;;10.55;100.00;100576.55;1809535;78;21714;-59
2022/10/29 17:04:33;;;;;;;16.27;11.70;;;;;;;10.45;100.00;100565.87;1803075;78;21576;-60
2022/10/29 17:07:01;;;;;;;16.57;11.17;;;;;;;10.45;100.00;100565.87;1797203;78;22076;-60
2022/10/29 17:09:29;;;;;;;15.53;11.27;;;;;;;10.40;100.00;100562.16;1811634;78;21639;-60
2022/10/29 17:11:58;;;;;;;15.60;10.57;;;;;;;10.40;100.00;100562.16;1811032;78;21434;-60
2022/10/29 17:14:26;;;;;;;11.53;8.73;;;;;;;10.43;100.00;100556.10;1812718;78;21539;-69
2022/10/29 17:16:53;;;;;;;12.63;8.97;;;;;;;10.42;100.00;100558.39;1809601;78;21629;-57
2022/10/29 17:19:20;;;;;;;15.17;10.63;;;;;;;10.40;100.00;100556.94;1811517;78;21709;-58
2022/10/29 17:21:48;;;;;;;14.93;10.73;;;;;;;10.40;100.00;100553.84;1788409;78;22221;-58
2022/10/29 17:24:16;;;;;;;18.40;11.63;;;;;;;10.39;100.00;100554.83;1796513;78;21784;-58
2022/10/29 17:26:43;;;;;;;15.40;10.20;;;;;;;10.39;100.00;100547.52;1802404;78;22086;-62
2022/10/29 17:29:10;;;;;;;11.23;9.00;;;;;;;10.38;100.00;100551.08;1811489;78;21646;-57
2022/10/29 17:31:37;;;;;;;12.80;9.43;;;;;;;10.41;100.00;100551.55;1817290;78;21740;-58
2022/10/29 17:34:05;;;;;;;15.20;9.67;;;;;;;10.41;100.00;100545.03;1817212;78;21745;-58
2022/10/29 17:36:33;;;;;;;12.07;9.07;;;;;;;10.41;100.00;100545.03;1807231;78;21724;-58
2022/10/29 17:39:00;;;;;;;12.03;8.93;;;;;;;10.51;100.00;100550.52;1794051;78;21760;-58
2022/10/29 17:41:27;;;;;;;11.83;8.70;;;;;;;10.51;100.00;100550.52;1797957;78;21491;-58
2022/10/29 17:43:54;;;;;;;11.50;8.20;;;;;;;10.44;100.00;100534.75;1806940;78;22209;-57
2022/10/29 17:46:22;;;;;;;10.73;8.33;;;;;;;10.46;100.00;100532.80;1806531;78;21653;-58
2022/10/29 17:48:55;;;;;;;10.73;8.37;;;;;;;10.46;100.00;100533.61;1793896;78;21654;-59
2022/10/29 17:51:22;;;;;;;12.18;9.40;;;;;;;10.48;100.00;100531.62;1807475;78;22008;-58
2022/10/29 17:53:49;;;;;;;10.37;8.97;;;;;;;10.46;100.00;100524.48;1797502;78;20978;-58
2022/10/29 17:56:16;;;;;;;10.50;7.30;;;;;;;10.48;100.00;100509.46;1793215;78;21910;-58
2022/10/29 17:58:43;;;;;;;10.87;8.33;;;;;;;10.48;100.00;100509.46;1789305;78;21992;-64
2022/10/29 18:01:12;;;;;;;13.43;8.70;;;;;;;10.58;100.00;100508.42;1805723;78;21700;-58
2022/10/29 18:03:40;;;;;;;11.73;8.67;;;;;;;10.58;100.00;100508.42;1813322;78;21348;-58
2022/10/29 18:06:10;;;;;;;11.30;8.67;;;;;;;10.64;100.00;100512.91;1799984;78;21637;-58
2022/10/29 18:08:38;;;;;;;10.83;8.10;;;;;;;10.66;100.00;100513.56;1811729;78;21797;-58
2022/10/29 18:11:17;;;;;;;12.00;7.97;;;;;;;10.70;100.00;100508.30;1817124;78;21695;-59
2022/10/29 18:13:46;;;;;;;13.33;9.10;;;;;;;10.71;100.00;100493.77;1793014;78;21574;-58
2022/10/29 18:16:19;;;;;;;11.83;9.03;;;;;;;10.71;100.00;100493.77;1806195;78;21442;-58
2022/10/29 18:18:47;;;;;;;15.00;9.40;;;;;;;10.73;100.00;100498.83;1791840;78;21648;-65
2022/10/29 18:21:16;;;;;;;10.63;8.30;;;;;;;10.74;100.00;100486.10;1816324;78;21701;-58
2022/10/29 18:23:44;;;;;;;10.60;8.70;;;;;;;10.74;100.00;100483.50;1812939;78;22480;-58
2022/10/29 18:26:31;;;;;;;13.93;8.43;;;;;;;10.75;100.00;100477.78;1810997;78;21696;-58
2022/10/29 18:29:00;;;;;;;12.30;10.00;;;;;;;10.80;100.00;100464.54;1805301;78;21993;-58
2022/10/29 18:31:29;;;;;;;11.83;9.03;;;;;;;10.91;100.00;100464.09;1805835;78;22178;-58
2022/10/29 18:33:57;;;;;;;13.77;9.90;;;;;;;10.91;100.00;100464.09;1790095;78;21664;-58
2022/10/29 18:36:24;;;;;;;11.23;9.07;;;;;;;10.93;100.00;100461.30;1812208;78;21627;-58
2022/10/29 18:38:53;;;;;;;11.73;9.10;;;;;;;10.96;100.00;100454.42;1816390;78;22292;-59
2022/10/29 18:41:21;;;;;;;11.67;8.53;;;;;;;10.99;100.00;100456.67;1807614;78;22124;-57
2022/10/29 18:43:49;;;;;;;10.80;7.70;;;;;;;11.01;100.00;100452.56;1807672;78;21698;-57
2022/10/29 18:46:17;;;;;;;10.17;7.90;;;;;;;11.02;100.00;100443.24;1816072;78;21624;-58
2022/10/29 18:48:46;;;;;;;10.77;7.20;;;;;;;11.04;100.00;100437.86;1817597;78;22099;-64
2022/10/29 18:51:25;;;;;;;11.87;8.80;;;;;;;11.05;100.00;100439.47;1807505;78;21718;-58
2022/10/29 18:53:53;;;;;;;9.90;8.37;;;;;;;11.14;100.00;100433.19;1793119;78;21660;-58
2022/10/29 18:56:21;;;;;;;12.33;8.37;;;;;;;11.14;100.00;100436.59;1812317;78;21624;-59
2022/10/29 18:58:49;;;;;;;10.67;8.47;;;;;;;11.20;100.00;100425.91;1802090;78;21657;-66
2022/10/29 19:01:21;;;;;;;11.67;7.77;;;;;;;11.28;100.00;100445.88;1810570;78;22195;-58
2022/10/29 19:03:51;;;;;;;12.07;7.50;;;;;;;11.32;100.00;100434.88;1801855;78;21700;-58
2022/10/29 19:06:19;;;;;;;11.03;7.77;;;;;;;11.34;100.00;100432.91;1792938;78;21656;-58
2022/10/29 19:08:46;;;;;;;11.40;8.03;;;;;;;11.38;100.00;100430.75;1811677;78;22225;-59
2022/10/29 19:11:15;;;;;;;9.30;7.30;;;;;;;11.38;100.00;100430.25;1807447;78;21932;-60
2022/10/29 19:13:42;;;;;;;9.67;8.13;;;;;;;11.39;100.00;100431.05;1806667;78;20994;-58
2022/10/29 19:16:12;;;;;;;9.90;7.20;;;;;;;11.43;100.00;100431.80;1809850;78;22158;-58
2022/10/29 19:18:39;;;;;;;9.80;7.77;;;;;;;11.47;100.00;100425.71;1805463;78;21632;-62
2022/10/29 19:21:11;;;;;;;12.37;8.40;;;;;;;11.49;100.00;100429.46;1801798;78;22087;-58
2022/10/29 19:23:40;;;;;;;10.27;8.00;;;;;;;11.53;100.00;100425.48;1803115;78;20864;-57
2022/10/29 19:26:11;;;;;;;12.70;9.63;;;;;;;11.54;100.00;100424.48;1801596;78;21473;-58
2022/10/29 19:28:38;;;;;;;;;;;;;;;11.56;100.00;100422.52;1816525;78;20991;-59
2022/10/29 19:31:08;;;;;;;10.53;7.80;;;;;;;11.60;100.00;100416.73;1795591;78;21261;-59
2022/10/29 19:33:35;;;;;;;9.47;7.37;;;;;;;11.62;100.00;100413.92;1806189;78;21177;-57
2022/10/29 19:36:05;;;;;;;10.47;7.93;;;;;;;11.66;100.00;100412.55;1801929;78;21591;-58
2022/10/29 19:38:32;;;;;;;10.63;8.50;;;;;;;11.70;100.00;100407.27;1816565;78;21047;-66
2022/10/29 19:41:00;;;;;;;12.37;8.97;;;;;;;11.72;100.00;100410.52;1806994;78;21037;-59
2022/10/29 19:43:31;;;;;;;11.87;9.40;;;;;;;11.73;100.00;100400.37;1808784;78;21764;-60
2022/10/29 19:45:56;;;;;;;12.80;8.60;;;;;;;11.74;100.00;100394.14;1803338;78;21669;-58
2022/10/29 19:48:24;;;;;;;11.60;8.47;;;;;;;11.73;100.00;100388.62;1788789;78;20977;-66
2022/10/29 19:50:55;;;;;;;10.83;7.40;;;;;;;11.75;100.00;100383.23;1792931;78;21116;-58
2022/10/29 19:53:22;;;;;;;8.70;7.42;;;;;;;11.75;100.00;100376.70;1817064;78;21050;-57
2022/10/29 19:55:49;;;;;;;11.93;8.57;;;;;;;11.77;100.00;100370.27;1801007;78;21244;-58
2022/10/29 19:58:19;;;;;;;12.43;8.07;;;;;;;11.80;100.00;100374.32;1797747;78;21015;-66
2022/10/29 20:00:46;;;;;;;10.23;7.53;;;;;;;11.80;100.00;100367.29;1803517;78;20950;-60
2022/10/29 20:03:14;;;;;;;10.93;7.43;;;;;;;11.80;100.00;100367.29;1807156;78;21517;-58
2022/10/29 20:05:41;;;;;;;10.27;7.77;;;;;;;11.87;100.00;100362.97;1810410;78;22139;-58
2022/10/29 20:08:09;;;;;;;12.90;8.17;;;;;;;11.86;100.00;100366.58;1815669;78;21137;-58
2022/10/29 20:10:36;;;;;;;9.33;7.50;;;;;;;11.84;100.00;100358.11;1812459;78;21612;-62
2022/10/29 20:13:05;;;;;;;11.73;7.97;;;;;;;11.83;100.00;100349.97;1817340;78;21438;-61
2022/10/29 20:15:33;;;;;;;10.03;7.47;;;;;;;11.85;100.00;100346.66;1807632;78;21395;-61
2022/10/29 20:18:00;;;;;;;11.80;8.70;;;;;;;11.86;100.00;100340.46;1811295;78;21754;-59
2022/10/29 20:20:27;;;;;;;10.70;7.83;;;;;;;11.83;100.00;100322.55;1801465;78;21160;-63
2022/10/29 20:22:55;;;;;;;10.77;7.87;;;;;;;11.81;100.00;100315.36;1816880;78;20947;-59
2022/10/29 20:25:24;;;;;;;11.00;8.57;;;;;;;11.76;100.00;100315.13;1814832;78;20970;-60
2022/10/29 20:27:51;;;;;;;10.57;8.20;;;;;;;11.74;100.00;100323.64;1800923;78;22139;-60
2022/10/29 20:30:19;;;;;;;12.93;9.07;;;;;;;11.71;100.00;100319.31;1816856;78;21000;-61
2022/10/29 20:32:47;;;;;;;11.57;8.60;;;;;;;11.68;100.00;100317.88;1816695;78;21200;-59
2022/10/29 20:35:15;;;;;;;10.87;8.43;;;;;;;11.64;100.00;100310.11;1798647;78;21081;-59
2022/10/29 20:37:43;;;;;;;10.77;9.13;;;;;;;11.59;100.00;100304.63;1816934;78;21000;-59
2022/10/29 20:40:11;;;;;;;13.23;9.00;;;;;;;11.56;100.00;100303.22;1813087;78;22159;-58
2022/10/29 20:42:38;;;;;;;11.70;8.63;;;;;;;11.56;100.00;100297.20;1791169;78;21025;-59
2022/10/29 20:45:06;;;;;;;16.23;8.33;;;;;;;11.52;100.00;100288.94;1799182;78;21243;-59
2022/10/29 20:47:33;;;;;;;12.40;9.87;;;;;;;11.52;100.00;100296.77;1811121;78;21018;-59
2022/10/29 20:50:01;;;;;;;10.37;8.77;;;;;;;11.50;100.00;100293.52;1799870;78;21375;-59
2022/10/29 20:52:29;;;;;;;12.87;9.57;;;;;;;11.51;100.00;100290.41;1788344;78;21653;-66
2022/10/29 20:54:56;;;;;;;11.30;8.73;;;;;;;11.51;100.00;100296.94;1801395;78;21207;-59
2022/10/29 20:57:23;;;;;;;12.40;8.80;;;;;;;11.45;100.00;100286.26;1798935;78;21141;-58
2022/10/29 20:59:52;;;;;;;12.13;9.87;;;;;;;11.49;100.00;100289.81;1802389;78;21480;-58
2022/10/29 21:02:19;;;;;;;13.53;8.80;;;;;;;11.49;100.00;100289.81;1764953;77;21976;-61
2022/10/29 21:04:46;;;;;;;12.70;9.70;;;;;;;11.50;100.00;100274.45;1725904;82;21803;-59
2022/10/29 21:07:13;;;;;;;10.37;9.17;;;;;;;11.54;100.00;100280.91;1727448;82;21106;-59
2022/10/29 21:09:40;;;;;;;11.80;9.30;;;;;;;11.56;100.00;100273.70;1696798;84;21761;-59
2022/10/29 21:12:07;;;;;;;11.43;9.30;;;;;;;11.58;100.00;100282.14;1656115;85;21679;-59
2022/10/29 21:14:36;;;;;;;11.43;10.10;;;;;;;11.56;100.00;100265.88;1648598;85;21035;-59
2022/10/29 21:17:04;;;;;;;14.13;10.00;;;;;;;11.55;100.00;100265.04;1643725;86;21033;-58
2022/10/29 21:19:33;;;;;;;12.23;9.87;;;;;;;11.59;100.00;100265.47;1642811;85;21088;-58
2022/10/29 21:22:01;;;;;;;13.47;10.33;;;;;;;11.62;100.00;100264.59;1645014;86;21280;-59
2022/10/29 21:24:28;;;;;;;14.53;10.23;;;;;;;11.62;100.00;100255.95;1637404;86;21100;-59
2022/10/29 21:26:56;;;;;;;13.23;9.83;;;;;;;11.64;100.00;100239.62;1634454;86;21115;-60
2022/10/29 21:29:23;;;;;;;15.13;10.00;;;;;;;11.62;100.00;100236.38;1700228;82;21053;-59
2022/10/29 21:31:50;;;;;;;16.20;10.83;;;;;;;11.65;100.00;100234.70;1708049;83;20996;-62
2022/10/29 21:34:17;;;;;;;13.93;10.13;;;;;;;11.65;100.00;100228.17;1708864;83;21225;-59
2022/10/29 21:36:44;;;;;;;11.70;9.50;;;;;;;11.68;100.00;100241.66;1710486;83;20953;-59
2022/10/29 21:39:12;;;;;;;11.07;9.17;;;;;;;11.69;100.00;100242.45;1705621;83;21003;-59
2022/10/29 21:41:40;;;;;;;13.90;10.20;;;;;;;11.73;100.00;100242.38;1704219;82;21023;-61
2022/10/29 21:44:08;;;;;;;13.10;10.00;;;;;;;11.78;100.00;100245.25;1705598;82;21365;-58
2022/10/29 21:46:35;;;;;;;12.60;9.30;;;;;;;11.82;100.00;100245.17;1705776;82;21154;-58
2022/10/29 21:49:02;;;;;;;13.77;9.77;;;;;;;11.84;100.00;100254.94;1704187;83;20962;-58
2022/10/29 21:51:31;;;;;;;11.40;9.20;;;;;;;11.85;100.00;100248.72;1704796;82;21530;-58
2022/10/29 21:53:58;;;;;;;12.30;9.23;;;;;;;11.85;100.00;100248.72;1702627;83;21514;-59
2022/10/29 21:56:25;;;;;;;12.00;9.50;;;;;;;11.83;100.00;100242.89;1704808;82;21539;-59
2022/10/29 21:58:52;;;;;;;11.60;9.30;;;;;;;11.83;100.00;100237.67;1704593;83;21814;-58
2022/10/29 22:01:19;;;;;;;12.13;10.03;;;;;;;11.83;100.00;100238.97;1707669;82;20928;-59
2022/10/29 22:03:47;;;;;;;11.53;9.20;;;;;;;11.83;100.00;100238.97;1703169;82;20949;-60
2022/10/29 22:06:17;;;;;;;11.03;8.97;;;;;;;11.79;100.00;100228.57;1704236;82;21039;-58
2022/10/29 22:08:45;;;;;;;13.57;9.67;;;;;;;11.77;100.00;100226.64;1707370;82;21092;-59
2022/10/29 22:11:13;;;;;;;10.80;8.30;;;;;;;11.80;100.00;100221.03;1703567;82;21201;-60
2022/10/29 22:13:40;;;;;;;11.60;9.70;;;;;;;11.75;100.00;100213.48;1707084;83;21088;-59
2022/10/29 22:16:08;;;;;;;12.40;8.63;;;;;;;11.70;100.00;100212.73;1702920;82;21028;-66
2022/10/29 22:18:35;;;;;;;12.30;9.53;;;;;;;11.69;100.00;100207.20;1707478;82;21863;-58
2022/10/29 22:21:15;;;;;;;14.60;9.30;;;;;;;11.71;100.00;100209.14;1699792;82;21546;-58
2022/10/29 22:23:48;;;;;;;11.55;8.50;;;;;;;11.68;100.00;100211.62;1700526;82;21852;-60
2022/10/29 22:26:16;;;;;;;;;;;;;;;11.69;100.00;100208.52;1705402;83;21009;-61
2022/10/29 22:28:48;;;;;;;12.87;9.67;;;;;;;11.71;100.00;100189.55;1706332;83;20189;-60
2022/10/29 22:31:17;;;;;;;9.98;8.00;;;;;;;11.74;100.00;100190.45;1703404;82;21743;-60
2022/10/29 22:33:46;;;;;;;10.97;8.77;;;;;;;11.72;100.00;100177.30;1702828;82;21016;-70
2022/10/29 22:36:19;;;;;;;12.43;9.13;;;;;;;11.72;100.00;100180.72;1705227;82;21220;-63
2022/10/29 22:38:46;;;;;;;12.33;9.80;;;;;;;11.72;100.00;100182.02;1707423;82;21009;-59
2022/10/29 22:41:15;;;;;;;13.87;10.13;;;;;;;11.74;100.00;100168.26;1705622;82;20968;-60
2022/10/29 22:43:43;;;;;;;11.47;9.27;;;;;;;11.72;100.00;100159.83;1702699;83;21071;-60
2022/10/29 22:46:13;;;;;;;11.70;9.83;;;;;;;11.74;100.00;100159.12;1706218;83;21016;-62
2022/10/29 22:48:42;;;;;;;12.60;9.45;;;;;;;11.71;100.00;100151.70;1704585;83;21129;-60
2022/10/29 22:51:13;;;;;;;12.00;9.63;;;;;;;11.71;100.00;100142.55;1706141;83;20949;-60
2022/10/29 22:53:40;;;;;;;;;;;;;;;11.73;100.00;100135.31;1706675;82;21065;-60
2022/10/29 22:56:16;;;;;;;10.83;9.13;;;;;;;11.72;100.00;100129.80;1706329;82;20560;-59
2022/10/29 22:58:43;;;;;;;13.83;9.37;;;;;;;11.74;100.00;100133.00;1709139;83;21557;-60
2022/10/29 23:01:14;;;;;;;12.27;9.33;;;;;;;11.71;100.00;100120.36;1702953;82;21133;-71
2022/10/29 23:03:42;;;;;;;12.57;10.77;;;;;;;11.68;100.00;100118.13;1708249;83;21005;-59
2022/10/29 23:06:12;;;;;;;11.27;9.10;;;;;;;11.64;100.00;100112.48;1706424;83;21048;-59
2022/10/29 23:08:39;;;;;;;12.93;10.10;;;;;;;11.65;100.00;100103.64;1704830;83;21803;-59
2022/10/29 23:11:10;;;;;;;12.93;9.97;;;;;;;11.65;100.00;100104.15;1706656;82;21099;-59
2022/10/29 23:13:37;;;;;;;13.47;10.30;;;;;;;11.66;100.00;100092.70;1720927;82;22222;-59
2022/10/29 23:16:05;;;;;;;11.00;9.80;;;;;;;11.66;100.00;100092.70;1704260;83;21008;-59
2022/10/29 23:18:32;;;;;;;11.90;9.47;;;;;;;11.69;100.00;100089.20;1705058;83;20992;-59
2022/10/29 23:21:00;;;;;;;12.80;9.97;;;;;;;11.69;100.00;100089.20;1704649;82;21048;-70
2022/10/29 23:23:28;;;;;;;12.50;10.30;;;;;;;11.72;100.00;100088.52;1703435;83;21068;-59
2022/10/29 23:26:00;;;;;;;12.30;9.83;;;;;;;11.68;100.00;100082.88;1706125;82;21102;-59
2022/10/29 23:28:27;;;;;;;12.20;9.40;;;;;;;11.66;100.00;100086.97;1704450;83;21127;-59
2022/10/29 23:30:56;;;;;;;13.13;9.77;;;;;;;11.66;100.00;100079.64;1703825;82;21021;-59
2022/10/29 23:33:23;;;;;;;11.20;9.20;;;;;;;11.64;100.00;100070.71;1702679;82;20976;-60
2022/10/29 23:35:51;;;;;;;13.43;9.83;;;;;;;11.63;100.00;100073.50;1704502;83;21090;-59
2022/10/29 23:38:18;;;;;;;14.73;9.83;;;;;;;11.64;100.00;100064.69;1704868;82;21845;-60
2022/10/29 23:40:46;;;;;;;12.17;9.67;;;;;;;11.66;100.00;100055.64;1705360;83;20874;-73
2022/10/29 23:43:13;;;;;;;11.10;9.37;;;;;;;11.65;100.00;100052.73;1709952;83;21017;-59
2022/10/29 23:45:41;;;;;;;12.97;9.23;;;;;;;11.66;100.00;100047.81;1707775;82;21036;-59
2022/10/29 23:48:08;;;;;;;10.40;8.47;;;;;;;11.67;100.00;100036.89;1704901;83;21186;-59
2022/10/29 23:50:36;;;;;;;11.73;9.33;;;;;;;11.72;100.00;100037.10;1705679;82;21261;-60
2022/10/29 23:53:04;;;;;;;13.10;9.10;;;;;;;11.74;100.00;100038.20;1704945;83;21546;-60
2022/10/29 23:55:33;;;;;;;12.37;9.40;;;;;;;11.73;100.00;100029.56;1703705;82;21020;-60
2022/10/29 23:58:00;;;;;;;10.90;8.27;;;;;;;11.73;100.00;100029.56;1697513;82;21016;-59
